Reber, New York
Current Conditions -  °F | °C
As of 11:54 PM on Friday 19 Dec 2014 (Local Time) from KBTV Reporting Station
Clear Clear  
Wind Chill: 18°   Ceiling: Unl
Heat Index: 18°   Visibility: 10mi
Dew Point: 13°   Wind: 0mph
Humidity: 81%   Direction: NA
Pressure: 30.24"   Gusts: NA
Location:  44.3585°N, 73.4161°W
Report Text: KBTV 200454Z 00000KT 10SM CLR M08/M11 A3024 RMK AO2 SLP244 T10781106 410171078
Loading
Personal Weather Stations






























Interactive Weather Map New forecast layout! Learn more

10-Day Weather Forecast

Advertisements
Track Severe Weather on mobile